Time;durP1;ratioP1;P1;durP2;ratioP2;P2;SDS_P1;SDS_P2;PMS_P1;PMS_P2;Temp;Humidity;BMP_temperature;BMP_pressure;BME280_temperature;BME280_humidity;BME280_pressure;Samples;Min_cycle;Max_cycle;Signal;HPM_P1;HPM_P2
2022/09/22 00:01:02;;;;;;;1.73;1.20;;;;;;;5.19;100.00;101836.59;4999389;28;20045;-80
2022/09/22 00:03:30;;;;;;;7.57;2.20;;;;;;;5.32;100.00;101837.75;5017729;28;20449;-81
2022/09/22 00:06:06;;;;;;;1.67;1.10;;;;;;;5.21;100.00;101839.25;4994741;28;20996;-81
2022/09/22 00:08:36;;;;;;;5.07;1.33;;;;;;;5.11;100.00;101839.91;4999798;28;20095;-82
2022/09/22 00:11:12;;;;;;;1.77;1.40;;;;;;;5.03;100.00;101840.63;4981048;28;20049;-81
2022/09/22 00:13:40;;;;;;;2.10;1.40;;;;;;;4.99;100.00;101846.69;5016362;28;20041;-81
2022/09/22 00:16:08;;;;;;;2.93;1.50;;;;;;;4.95;100.00;101839.59;4963262;28;20045;-81
2022/09/22 00:18:35;;;;;;;1.83;1.30;;;;;;;4.87;100.00;101840.28;4988790;28;20073;-81
2022/09/22 00:21:06;;;;;;;3.87;1.40;;;;;;;4.80;100.00;101836.66;4963146;28;20070;-81
2022/09/22 00:23:34;;;;;;;2.30;1.50;;;;;;;4.75;100.00;101835.66;4970370;28;20128;-81
2022/09/22 00:26:12;;;;;;;2.60;1.20;;;;;;;4.70;100.00;101838.16;4977784;28;20045;-81
2022/09/22 00:28:40;;;;;;;2.87;1.37;;;;;;;4.66;100.00;101836.34;4980056;28;20105;-81
2022/09/22 00:31:12;;;;;;;3.03;1.50;;;;;;;4.62;100.00;101831.88;4979373;28;20566;-82
2022/09/22 00:33:40;;;;;;;1.47;1.37;;;;;;;4.58;100.00;101831.78;4980205;28;20041;-82
2022/09/22 00:39:14;;;;;;;5.57;1.50;;;;;;;4.42;100.00;101836.66;4930040;29;20050;-81
2022/09/22 00:41:43;;;;;;;1.63;1.20;;;;;;;4.46;100.00;101842.88;4900574;29;20075;-79
2022/09/22 02:04:40;;;;;;;2.50;1.20;;;;;;;3.36;100.00;101822.66;5004523;28;20119;-80
2022/09/22 02:07:19;;;;;;;2.23;1.50;;;;;;;3.35;100.00;101822.59;5010664;28;20124;-80
2022/09/22 02:09:46;;;;;;;1.60;1.20;;;;;;;3.30;100.00;101827.69;5017427;28;20462;-80
2022/09/22 02:12:17;;;;;;;1.90;1.63;;;;;;;3.34;100.00;101824.31;5002121;28;20046;-80
2022/09/22 02:14:48;;;;;;;3.80;1.60;;;;;;;3.34;100.00;101826.94;4977613;28;20606;-80
2022/09/22 02:17:15;;;;;;;1.73;1.37;;;;;;;3.31;100.00;101829.47;4988848;28;20061;-80
2022/09/22 02:19:41;;;;;;;2.70;1.40;;;;;;;3.21;100.00;101829.19;4979006;28;20486;-80
2022/09/22 02:22:09;;;;;;;1.70;1.40;;;;;;;3.09;100.00;101827.97;5024075;28;20046;-81
2022/09/22 02:24:39;;;;;;;1.60;1.20;;;;;;;3.05;100.00;101826.13;4976592;28;20067;-80
2022/09/22 02:27:10;;;;;;;2.93;1.50;;;;;;;3.06;100.00;101837.44;5010787;28;20410;-80
2022/09/22 02:29:42;;;;;;;3.90;1.70;;;;;;;3.06;100.00;101834.84;5009977;28;20048;-82
2022/09/22 02:32:12;;;;;;;1.93;1.50;;;;;;;3.05;100.00;101826.13;4994950;28;20045;-81
2022/09/22 02:34:39;;;;;;;3.53;1.70;;;;;;;3.04;100.00;101829.56;5012655;28;20036;-81
2022/09/22 02:37:30;;;;;;;1.50;1.30;;;;;;;2.99;100.00;101818.09;5005561;28;20045;-82
2022/09/22 02:40:09;;;;;;;2.20;1.77;;;;;;;3.00;100.00;101832.03;5002526;28;20522;-81
2022/09/22 02:42:41;;;;;;;1.33;1.13;;;;;;;2.95;100.00;101836.25;4973697;28;20042;-81
2022/09/22 02:45:26;;;;;;;2.80;1.70;;;;;;;2.90;100.00;101830.88;4989914;28;20043;-82
2022/09/22 02:47:58;;;;;;;4.43;2.03;;;;;;;2.88;100.00;101826.47;5019368;28;20103;-81
2022/09/22 02:50:26;;;;;;;1.53;1.13;;;;;;;2.84;100.00;101830.69;4979208;28;20089;-82
2022/09/22 02:53:00;;;;;;;3.17;1.27;;;;;;;2.84;100.00;101833.31;4984221;28;20108;-80
2022/09/22 02:55:27;;;;;;;2.43;1.40;;;;;;;2.87;100.00;101824.72;4995619;28;20501;-80
2022/09/22 02:57:54;;;;;;;3.20;1.60;;;;;;;2.72;100.00;101827.75;5020410;28;20057;-79
2022/09/22 03:00:21;;;;;;;2.53;1.40;;;;;;;2.76;100.00;101825.25;5019323;28;20041;-80
2022/09/22 03:02:48;;;;;;;2.00;1.30;;;;;;;2.88;100.00;101827.34;4998768;28;20092;-79
2022/09/22 03:05:14;;;;;;;2.50;1.40;;;;;;;2.85;100.00;101823.75;4980947;28;20065;-79
2022/09/22 03:07:41;;;;;;;2.73;1.40;;;;;;;2.83;100.00;101828.94;4989286;28;20412;-80
2022/09/22 03:10:08;;;;;;;2.30;1.60;;;;;;;2.86;100.00;101817.69;4986264;28;20069;-79
2022/09/22 03:12:34;;;;;;;2.33;1.97;;;;;;;2.86;100.00;101828.13;4999318;28;20041;-80
2022/09/22 03:15:01;;;;;;;2.67;1.47;;;;;;;2.76;100.00;101821.75;4979087;28;20049;-80
2022/09/22 03:17:28;;;;;;;2.10;1.47;;;;;;;2.83;100.00;101819.38;4976848;28;20554;-80
2022/09/22 03:19:54;;;;;;;5.30;1.40;;;;;;;2.79;100.00;101822.75;5015209;28;20049;-80
2022/09/22 03:22:21;;;;;;;1.77;1.30;;;;;;;2.72;100.00;101823.41;4991584;28;20124;-81
2022/09/22 03:24:48;;;;;;;2.33;1.20;;;;;;;2.70;100.00;101819.88;5009512;28;20038;-80
2022/09/22 03:27:14;;;;;;;1.87;1.30;;;;;;;2.83;100.00;101824.59;4986454;28;20049;-81
2022/09/22 03:29:41;;;;;;;2.17;1.73;;;;;;;2.67;100.00;101824.97;5013179;28;20096;-81
2022/09/22 03:32:07;;;;;;;2.40;1.43;;;;;;;2.50;100.00;101819.25;5015044;28;20050;-81
2022/09/22 03:34:34;;;;;;;2.77;1.57;;;;;;;2.47;100.00;101819.16;4997085;28;20053;-80
2022/09/22 03:37:01;;;;;;;1.83;1.47;;;;;;;2.39;100.00;101817.16;4980955;28;20050;-80
2022/09/22 03:39:27;;;;;;;4.20;1.93;;;;;;;2.45;100.00;101814.75;4997638;28;20046;-80
2022/09/22 03:41:54;;;;;;;1.67;1.20;;;;;;;2.41;100.00;101815.47;4991943;28;20357;-80
2022/09/22 03:44:20;;;;;;;1.87;1.67;;;;;;;2.40;100.00;101817.19;4995538;28;20050;-80
2022/09/22 03:46:47;;;;;;;3.37;2.20;;;;;;;2.41;100.00;101810.25;4986231;28;20486;-80
2022/09/22 03:49:14;;;;;;;3.90;1.67;;;;;;;2.37;100.00;101818.84;4999433;28;20045;-79
2022/09/22 03:51:40;;;;;;;1.50;1.30;;;;;;;2.27;100.00;101807.25;4995587;28;20069;-81
2022/09/22 03:54:08;;;;;;;3.57;1.40;;;;;;;2.24;100.00;101809.72;5002902;28;20038;-81
2022/09/22 03:56:34;;;;;;;2.13;1.40;;;;;;;2.25;100.00;101809.78;5022883;28;20133;-81
2022/09/22 03:59:01;;;;;;;1.40;1.30;;;;;;;2.31;100.00;101798.66;4983155;28;20556;-81
2022/09/22 04:01:28;;;;;;;3.43;1.37;;;;;;;2.29;100.00;101796.84;4967513;28;20046;-81
2022/09/22 04:03:55;;;;;;;3.63;1.60;;;;;;;2.28;100.00;101810.72;4999672;28;20038;-81
2022/09/22 04:06:22;;;;;;;2.47;1.53;;;;;;;2.24;100.00;101805.41;4976304;28;20073;-82
2022/09/22 04:08:48;;;;;;;2.10;1.27;;;;;;;2.22;100.00;101803.59;4985631;28;20042;-81
2022/09/22 04:11:15;;;;;;;2.63;1.70;;;;;;;2.27;100.00;101794.19;4970446;28;20042;-81
2022/09/22 04:13:42;;;;;;;3.43;1.30;;;;;;;2.30;100.00;101796.91;4992430;28;20491;-82
2022/09/22 04:16:12;;;;;;;4.27;1.60;;;;;;;2.34;100.00;101793.53;5010134;28;20514;-82
2022/09/22 04:18:39;;;;;;;2.00;1.30;;;;;;;2.22;100.00;101796.66;4976792;28;20427;-82
2022/09/22 04:21:06;;;;;;;1.60;1.40;;;;;;;2.23;100.00;101801.03;4992635;28;20046;-81
2022/09/22 04:23:33;;;;;;;4.17;2.63;;;;;;;2.13;100.00;101798.09;4988667;28;20061;-82
2022/09/22 04:26:00;;;;;;;1.47;1.33;;;;;;;2.11;100.00;101800.66;4998761;28;20100;-81
2022/09/22 04:28:28;;;;;;;1.57;1.23;;;;;;;2.00;100.00;101793.28;4962503;28;20045;-82
2022/09/22 04:30:57;;;;;;;2.07;1.37;;;;;;;2.03;100.00;101799.50;4993160;28;20399;-82
2022/09/22 04:33:24;;;;;;;2.67;1.50;;;;;;;1.95;100.00;101793.16;4980429;28;20280;-81
2022/09/22 04:35:51;;;;;;;7.07;2.27;;;;;;;1.96;100.00;101797.53;4980649;28;20050;-82
2022/09/22 04:38:18;;;;;;;1.60;1.40;;;;;;;2.01;100.00;101801.16;4997422;28;20108;-81
2022/09/22 04:40:45;;;;;;;2.37;1.67;;;;;;;1.98;100.00;101796.75;4973501;28;20100;-83
2022/09/22 04:43:11;;;;;;;2.63;1.27;;;;;;;1.86;100.00;101798.06;5007517;28;20038;-83
2022/09/22 04:45:38;;;;;;;2.37;1.40;;;;;;;1.87;100.00;101797.25;4989188;28;20049;-82
2022/09/22 04:48:05;;;;;;;2.23;1.50;;;;;;;1.91;100.00;101799.09;4994511;28;20042;-82
2022/09/22 04:50:32;;;;;;;1.93;1.33;;;;;;;1.89;100.00;101791.22;4974348;28;20058;-82
2022/09/22 04:52:58;;;;;;;1.60;1.50;;;;;;;1.89;100.00;101791.22;4976565;28;20046;-81
2022/09/22 04:55:26;;;;;;;1.90;1.37;;;;;;;1.87;100.00;101798.13;4982468;28;20061;-82
2022/09/22 04:57:54;;;;;;;1.53;1.10;;;;;;;1.88;100.00;101797.28;4962414;28;20049;-82
2022/09/22 05:00:22;;;;;;;2.30;1.40;;;;;;;1.87;100.00;101798.13;4994895;28;20078;-82
2022/09/22 05:02:49;;;;;;;3.03;1.37;;;;;;;1.85;100.00;101799.81;4978366;28;20414;-82
2022/09/22 05:05:16;;;;;;;2.23;1.93;;;;;;;1.87;100.00;101797.25;4961626;28;20041;-81
2022/09/22 05:07:48;;;;;;;2.17;1.23;;;;;;;1.88;100.00;101799.88;4965218;28;20561;-81
2022/09/22 05:10:19;;;;;;;2.90;1.43;;;;;;;1.88;100.00;101796.41;5002799;28;20043;-82
2022/09/22 05:12:46;;;;;;;2.23;1.50;;;;;;;1.87;100.00;101805.06;4958605;28;20100;-81
2022/09/22 05:15:14;;;;;;;5.23;2.13;;;;;;;1.90;100.00;101799.94;4996486;28;20045;-82
2022/09/22 05:17:45;;;;;;;1.40;1.10;;;;;;;1.92;100.00;101806.97;4975504;28;20038;-82
2022/09/22 05:20:12;;;;;;;4.80;1.57;;;;;;;1.91;100.00;101809.50;5013726;28;20045;-82
2022/09/22 05:22:39;;;;;;;1.33;1.10;;;;;;;1.85;100.00;101806.69;4981795;28;20502;-82
2022/09/22 05:25:11;;;;;;;1.47;1.30;;;;;;;1.88;100.00;101804.22;4975826;28;20045;-82
2022/09/22 05:27:52;;;;;;;2.60;1.30;;;;;;;1.91;100.00;101801.69;5009058;28;20052;-81
2022/09/22 05:30:20;;;;;;;2.90;1.20;;;;;;;1.89;100.00;101803.38;4962539;28;20422;-82
2022/09/22 05:32:47;;;;;;;1.37;1.17;;;;;;;1.87;100.00;101815.47;4990938;28;20045;-82
2022/09/22 05:35:17;;;;;;;1.63;1.40;;;;;;;1.90;100.00;101815.56;5003689;28;20042;-82
2022/09/22 05:37:45;;;;;;;3.80;1.30;;;;;;;1.99;100.00;101813.25;4981356;28;20042;-82
2022/09/22 05:40:12;;;;;;;1.30;1.20;;;;;;;2.02;100.00;101813.38;5008284;28;20126;-81
2022/09/22 05:42:47;;;;;;;1.70;1.30;;;;;;;1.91;100.00;101820.81;4995647;28;20053;-82
2022/09/22 05:45:15;;;;;;;1.63;1.40;;;;;;;1.88;100.00;101817.25;4968411;28;20049;-81
2022/09/22 05:47:42;;;;;;;1.93;1.13;;;;;;;1.97;100.00;101823.66;4980503;28;20046;-81
2022/09/22 05:50:11;;;;;;;4.17;2.00;;;;;;;2.15;100.00;101827.69;4978382;28;20049;-81
2022/09/22 05:52:38;;;;;;;1.60;1.37;;;;;;;2.12;100.00;101815.44;4970602;28;20042;-82
2022/09/22 05:55:05;;;;;;;2.00;1.20;;;;;;;2.10;100.00;101826.63;4990811;28;20099;-81
2022/09/22 05:57:32;;;;;;;2.60;1.37;;;;;;;2.02;100.00;101829.03;4991804;28;20494;-82
2022/09/22 05:59:59;;;;;;;2.47;1.30;;;;;;;2.05;100.00;101829.13;5001329;28;20046;-81
2022/09/22 06:02:26;;;;;;;2.37;1.07;;;;;;;2.25;100.00;101830.63;5007538;28;20099;-81
2022/09/22 06:04:53;;;;;;;2.13;1.20;;;;;;;2.25;100.00;101845.38;4989784;28;20519;-81
2022/09/22 06:07:20;;;;;;;5.80;1.80;;;;;;;2.07;100.00;101840.47;4961107;28;20049;-81
2022/09/22 06:09:47;;;;;;;2.33;1.50;;;;;;;2.17;100.00;101842.53;4977868;28;20100;-81
2022/09/22 06:12:15;;;;;;;1.83;1.30;;;;;;;2.25;100.00;101842.78;5008326;28;20050;-81
2022/09/22 06:14:41;;;;;;;1.33;1.00;;;;;;;2.12;100.00;101843.25;5009885;28;20041;-80
2022/09/22 06:17:11;;;;;;;2.27;1.30;;;;;;;2.20;100.00;101842.66;4993781;28;20042;-80
2022/09/22 06:19:38;;;;;;;2.50;1.20;;;;;;;2.16;100.00;101845.97;4997633;28;20068;-80
2022/09/22 06:22:05;;;;;;;3.27;1.50;;;;;;;2.23;100.00;101834.03;5012253;28;20721;-80
2022/09/22 06:24:32;;;;;;;3.20;1.43;;;;;;;2.41;100.00;101836.34;4993080;28;20106;-80
2022/09/22 06:26:58;;;;;;;2.27;1.30;;;;;;;2.51;100.00;101833.16;4996152;28;20719;-80
2022/09/22 06:29:25;;;;;;;2.23;1.30;;;;;;;2.53;100.00;101844.56;5013016;28;20490;-80
2022/09/22 06:31:52;;;;;;;2.43;1.43;;;;;;;2.49;100.00;101832.25;4994439;28;20042;-80
2022/09/22 06:34:19;;;;;;;2.17;1.23;;;;;;;2.47;100.00;101833.94;5016585;28;20053;-81
2022/09/22 06:36:45;;;;;;;2.57;1.10;;;;;;;2.59;100.00;101834.28;5012937;28;20057;-80
2022/09/22 06:39:13;;;;;;;2.00;1.60;;;;;;;2.74;100.00;101834.75;5013553;28;20053;-80
2022/09/22 06:41:39;;;;;;;1.67;1.10;;;;;;;2.78;100.00;101834.03;5012121;28;20049;-80
2022/09/22 06:44:07;;;;;;;2.67;1.53;;;;;;;2.87;100.00;101835.16;5012399;28;20060;-80
2022/09/22 06:46:34;;;;;;;2.20;1.20;;;;;;;3.03;100.00;101832.16;5026574;28;20737;-79
2022/09/22 06:49:01;;;;;;;2.10;1.27;;;;;;;3.19;100.00;101830.84;5006975;28;20050;-79
2022/09/22 06:51:31;;;;;;;1.83;1.27;;;;;;;3.60;100.00;101826.75;5003243;28;20050;-79
2022/09/22 06:54:00;;;;;;;1.67;0.90;;;;;;;4.31;100.00;101835.53;5022256;28;20038;-79
2022/09/22 06:56:28;;;;;;;1.60;1.20;;;;;;;4.81;100.00;101833.19;4992594;28;20041;-80
2022/09/22 06:58:55;;;;;;;1.50;1.10;;;;;;;5.34;100.00;101830.78;5029701;28;20058;-79
2022/09/22 07:01:36;;;;;;;3.00;1.00;;;;;;;5.74;100.00;101837.66;4998213;28;20037;-79
2022/09/22 07:04:03;;;;;;;2.60;1.30;;;;;;;5.99;100.00;101833.78;5007393;28;20068;-79
2022/09/22 07:06:30;;;;;;;3.70;1.40;;;;;;;5.82;100.00;101830.81;4976639;28;20057;-79
2022/09/22 07:08:57;;;;;;;1.10;1.00;;;;;;;5.85;100.00;101835.22;5045451;28;20041;-79
2022/09/22 07:11:23;;;;;;;2.93;1.10;;;;;;;5.96;100.00;101835.44;5004615;28;20091;-79
2022/09/22 07:13:52;;;;;;;1.53;1.00;;;;;;;6.14;100.00;101825.28;4979199;28;20042;-79
2022/09/22 07:16:21;;;;;;;1.37;0.90;;;;;;;6.35;100.00;101827.34;5010311;28;20052;-78
2022/09/22 07:18:50;;;;;;;1.13;1.00;;;;;;;6.59;100.00;101825.09;4996332;28;20046;-79
2022/09/22 07:21:19;;;;;;;1.50;1.27;;;;;;;6.76;100.00;101831.47;4985610;28;20044;-79
2022/09/22 07:23:48;;;;;;;1.33;1.00;;;;;;;6.82;100.00;101825.44;5017486;28;20045;-79
2022/09/22 07:26:20;;;;;;;1.80;1.30;;;;;;;6.94;100.00;101816.81;5011697;28;20053;-79
2022/09/22 07:28:51;;;;;;;1.90;0.90;;;;;;;6.93;100.00;101823.81;5013856;28;20041;-79
2022/09/22 07:31:18;;;;;;;1.30;1.20;;;;;;;7.08;100.00;101819.63;4996961;28;20046;-78
2022/09/22 07:33:45;;;;;;;1.50;1.13;;;;;;;7.01;100.00;101821.28;4994986;28;20061;-78
2022/09/22 07:36:31;;;;;;;2.63;1.17;;;;;;;6.90;100.00;101828.16;4997923;28;20048;-78
2022/09/22 07:39:05;;;;;;;1.80;1.10;;;;;;;6.97;100.00;101829.97;5034386;28;20064;-78
2022/09/22 07:41:40;;;;;;;;;;;;;;;7.05;100.00;101823.94;4999429;28;20411;-79
2022/09/22 07:46:53;;;;;;;2.83;1.33;;;;;;;7.36;100.00;101828.72;5017522;28;20036;-78
2022/09/22 07:49:21;;;;;;;2.47;1.60;;;;;;;7.47;100.00;101825.31;5016513;28;20041;-78
2022/09/22 07:51:48;;;;;;;1.30;1.20;;;;;;;7.49;100.00;101826.25;5015081;28;20458;-79
2022/09/22 07:54:15;;;;;;;2.10;1.40;;;;;;;7.59;100.00;101827.22;4996150;28;20041;-78
2022/09/22 07:56:43;;;;;;;2.77;1.60;;;;;;;7.74;100.00;101830.00;4998666;28;20601;-79
2022/09/22 07:59:11;;;;;;;3.00;1.40;;;;;;;7.85;100.00;101828.34;5017067;28;20037;-79
2022/09/22 08:01:43;;;;;;;1.77;1.40;;;;;;;7.94;100.00;101834.56;4999729;28;20087;-78
2022/09/22 08:04:12;;;;;;;1.77;1.50;;;;;;;8.06;100.00;101829.41;4985167;28;20693;-79
2022/09/22 08:06:39;;;;;;;2.30;1.50;;;;;;;8.20;100.00;101822.50;4994345;28;20042;-80
2022/09/22 08:09:07;;;;;;;2.47;1.63;;;;;;;8.35;100.00;101824.41;5013486;28;20100;-79
2022/09/22 08:11:33;;;;;;;2.97;1.60;;;;;;;8.55;100.00;101827.16;5085052;23;20120;-82
2022/09/22 08:14:03;;;;;;;2.00;1.60;;;;;;;8.77;100.00;101829.06;5030681;28;20095;-81
2022/09/22 08:16:32;;;;;;;1.70;1.20;;;;;;;8.97;100.00;101822.13;5011769;28;20037;-82
2022/09/22 08:19:02;;;;;;;2.33;1.63;;;;;;;9.12;100.00;101818.69;5018813;28;20044;-83
2022/09/22 08:21:32;;;;;;;2.13;1.43;;;;;;;9.23;100.00;101829.28;5066114;28;20045;-82
2022/09/22 08:23:59;;;;;;;1.52;1.25;;;;;;;9.37;100.00;101827.56;5034342;28;20584;-81
2022/09/22 08:26:26;;;;;;;1.90;1.52;;;;;;;9.90;100.00;101832.06;5033049;28;20045;-82
2022/09/22 08:28:54;;;;;;;2.03;1.50;;;;;;;10.01;100.00;101830.34;5034118;28;20036;-81
2022/09/22 08:31:23;;;;;;;1.60;1.50;;;;;;;9.98;100.00;101835.59;5031800;28;20044;-81
2022/09/22 08:33:53;;;;;;;1.52;1.35;;;;;;;10.08;100.00;101833.84;5008567;28;20089;-82
2022/09/22 08:36:21;;;;;;;1.95;1.35;;;;;;;10.18;100.00;101827.72;4998168;28;20100;-80
2022/09/22 08:38:48;;;;;;;1.95;1.40;;;;;;;10.30;100.00;101827.72;5081969;28;20048;-81
2022/09/22 08:41:26;;;;;;;1.40;1.23;;;;;;;10.59;100.00;101835.59;5037090;28;20055;-80
2022/09/22 08:43:56;;;;;;;2.15;1.30;;;;;;;10.83;100.00;101828.50;5025480;28;20493;-80
2022/09/22 08:46:27;;;;;;;2.35;1.50;;;;;;;10.92;100.00;101829.34;5068917;28;20049;-80
2022/09/22 08:52:18;;;;;;;2.33;1.30;;;;;;;11.54;100.00;101820.25;5027359;28;20053;-81
2022/09/22 08:54:45;;;;;;;1.77;1.23;;;;;;;11.57;100.00;101822.00;5033877;28;20045;-80
2022/09/22 08:57:23;;;;;;;1.88;1.10;;;;;;;11.83;100.00;101825.38;5047156;28;20041;-80
2022/09/22 08:59:56;;;;;;;1.42;1.10;;;;;;;12.10;100.00;101826.94;5057770;28;20060;-80
2022/09/22 09:02:34;;;;;;;1.30;1.10;;;;;;;12.53;100.00;101831.00;5032449;28;20048;-81
2022/09/22 09:05:35;;;;;;;1.52;1.00;;;;;;;12.98;100.00;101812.84;5034555;28;20672;-80
2022/09/22 09:08:22;;;;;;;1.17;0.98;;;;;;;13.26;93.33;101822.22;5035242;28;20028;-80
2022/09/22 09:11:01;;;;;;;1.50;0.80;;;;;;;13.45;89.74;101815.78;5032939;28;20114;-80
2022/09/22 09:14:05;;;;;;;1.00;0.90;;;;;;;13.96;92.16;101818.56;5033851;28;20041;-81
2022/09/22 09:17:17;;;;;;;1.37;0.90;;;;;;;14.33;91.23;101816.16;5011897;28;20076;-81
2022/09/22 09:19:47;;;;;;;0.90;0.90;;;;;;;14.74;90.88;101808.34;5006688;28;20577;-81
2022/09/22 09:22:17;;;;;;;1.02;0.93;;;;;;;15.07;78.43;101802.34;5032117;28;20042;-81
2022/09/22 09:24:47;;;;;;;1.20;0.82;;;;;;;14.83;70.57;101803.72;5017665;28;20421;-81
2022/09/22 09:27:38;;;;;;;1.52;0.80;;;;;;;15.32;74.41;101807.16;5049247;28;20060;-81
2022/09/22 09:30:08;;;;;;;1.00;0.80;;;;;;;15.67;76.61;101793.94;5017807;28;20041;-81
2022/09/22 09:32:42;;;;;;;1.05;0.75;;;;;;;15.99;71.27;101802.97;5032804;28;20508;-81
2022/09/22 09:35:14;;;;;;;0.90;0.90;;;;;;;16.03;69.47;101801.97;5034227;28;20051;-81
2022/09/22 09:37:45;;;;;;;1.00;0.77;;;;;;;15.89;74.53;101799.66;5015473;28;20040;-81
2022/09/22 09:40:17;;;;;;;1.10;0.80;;;;;;;16.12;69.72;101799.06;5015137;28;20469;-81
2022/09/22 09:42:54;;;;;;;0.68;0.55;;;;;;;15.76;70.11;101799.06;5015170;28;20561;-81
2022/09/22 09:45:25;;;;;;;0.63;0.60;;;;;;;15.62;71.25;101798.50;5049783;28;20044;-81
2022/09/22 09:48:07;;;;;;;1.90;1.00;;;;;;;15.44;69.88;101807.75;5049605;28;20064;-79
2022/09/22 09:50:34;;;;;;;1.70;0.90;;;;;;;15.26;66.41;101797.50;5018844;28;20060;-81
2022/09/22 09:53:01;;;;;;;2.30;1.10;;;;;;;14.88;63.57;101796.53;5048330;28;20045;-81
2022/09/22 09:55:28;;;;;;;0.93;0.82;;;;;;;15.67;64.39;101791.28;5032690;28;20045;-81
2022/09/22 09:58:06;;;;;;;1.48;0.82;;;;;;;15.96;67.98;101793.22;5049612;28;20033;-81
2022/09/22 10:00:51;;;;;;;1.73;0.80;;;;;;;16.18;64.35;101793.59;5031922;28;20051;-81
2022/09/22 10:03:28;;;;;;;0.95;0.75;;;;;;;15.68;61.54;101793.03;5013259;28;20037;-81
2022/09/22 10:06:05;;;;;;;0.70;0.70;;;;;;;16.16;64.65;101791.88;5028733;28;20137;-82
2022/09/22 10:08:40;;;;;;;1.17;0.70;;;;;;;16.32;62.43;101783.44;5015879;28;20033;-82
2022/09/22 10:11:08;;;;;;;1.98;0.70;;;;;;;16.44;60.86;101776.91;5001866;28;20094;-82
2022/09/22 10:13:37;;;;;;;0.60;0.57;;;;;;;16.62;54.59;101780.84;5029389;28;20048;-82
2022/09/22 10:16:25;;;;;;;0.93;0.80;;;;;;;16.80;56.97;101780.34;5012162;28;20048;-82
2022/09/22 10:19:03;;;;;;;3.08;0.80;;;;;;;16.58;57.50;101774.75;4997780;28;20041;-80
2022/09/22 10:21:30;;;;;;;0.68;0.60;;;;;;;16.31;59.51;101776.38;5012400;28;20037;-81
2022/09/22 10:23:58;;;;;;;1.08;0.70;;;;;;;16.43;60.31;101784.94;4997972;28;20041;-79
2022/09/22 10:26:30;;;;;;;0.63;0.57;;;;;;;16.64;56.52;101772.78;4998313;28;20486;-79
2022/09/22 10:29:17;;;;;;;0.93;0.80;;;;;;;16.67;55.05;101776.28;5014177;28;20033;-79
2022/09/22 10:32:04;;;;;;;1.20;0.80;;;;;;;16.84;59.66;101771.38;5013592;28;20071;-79
2022/09/22 10:34:33;;;;;;;1.65;0.70;;;;;;;16.68;56.69;101771.81;5029033;28;20061;-81
2022/09/22 10:37:02;;;;;;;1.23;0.60;;;;;;;16.60;57.93;101769.34;5012782;28;20048;-82
2022/09/22 10:39:50;;;;;;;0.60;0.60;;;;;;;16.86;52.73;101771.31;5013476;28;20042;-80
2022/09/22 10:42:32;;;;;;;0.52;0.30;;;;;;;17.08;48.98;101769.78;4996601;28;20045;-80
2022/09/22 10:45:08;;;;;;;0.40;0.35;;;;;;;17.19;47.56;101769.44;5047862;28;20113;-80
2022/09/22 10:47:58;;;;;;;0.30;0.30;;;;;;;17.41;46.02;101775.00;5032566;28;20044;-81
2022/09/22 10:50:36;;;;;;;0.60;0.60;;;;;;;17.38;43.26;101772.41;5031433;28;20053;-82
2022/09/22 10:53:20;;;;;;;0.77;0.50;;;;;;;16.94;43.37;101777.31;5030252;28;20045;-81
2022/09/22 10:56:20;;;;;;;0.47;0.32;;;;;;;17.12;48.31;101770.53;5028768;28;20037;-80
2022/09/22 10:59:23;;;;;;;0.30;0.30;;;;;;;17.06;41.00;101770.72;5030120;28;20489;-78
2022/09/22 11:01:56;;;;;;;0.95;0.50;;;;;;;16.77;41.53;101780.47;4997051;28;20050;-81
2022/09/22 11:04:40;;;;;;;0.60;0.55;;;;;;;17.10;43.57;101772.41;5014781;28;20049;-82
2022/09/22 11:13:26;;;;;;;0.75;0.45;;;;;;;17.72;46.74;101756.22;5049247;28;20049;-80
2022/09/22 11:16:21;;;;;;;0.50;0.50;;;;;;;17.11;47.65;101758.13;5032631;28;20048;-80
2022/09/22 11:19:07;;;;;;;0.80;0.60;;;;;;;17.42;47.48;101766.06;5017759;28;20080;-79
2022/09/22 11:21:55;;;;;;;1.05;0.60;;;;;;;17.63;45.01;101751.16;5031540;28;20084;-80
2022/09/22 11:24:32;;;;;;;0.55;0.55;;;;;;;17.69;45.11;101751.81;5034850;28;20044;-80
2022/09/22 11:27:00;;;;;;;0.60;0.50;;;;;;;17.74;48.23;101751.72;5034527;28;20128;-80
2022/09/22 11:29:59;;;;;;;0.68;0.65;;;;;;;17.60;43.44;101746.78;5035882;28;20069;-80
2022/09/22 11:32:34;;;;;;;0.90;0.30;;;;;;;17.56;44.29;101738.91;5016787;28;20046;-80
2022/09/22 11:35:27;;;;;;;0.40;0.30;;;;;;;17.80;43.33;101745.28;5034414;28;20049;-81
2022/09/22 11:38:16;;;;;;;0.40;0.40;;;;;;;17.77;44.21;101738.25;5030904;28;20056;-83
2022/09/22 11:41:28;;;;;;;0.90;0.50;;;;;;;18.09;46.39;101737.16;5014618;28;20503;-85
2022/09/22 11:44:23;;;;;;;0.50;0.50;;;;;;;18.22;46.18;101729.56;5026526;28;20086;-79
2022/09/22 11:47:05;;;;;;;;;;;;;;;18.11;44.32;101729.94;5013953;28;20042;-82
2022/09/22 11:49:46;;;;;;;0.50;0.50;;;;;;;18.29;45.72;101723.06;5035215;28;20392;-81
2022/09/22 11:52:42;;;;;;;0.63;0.40;;;;;;;18.15;43.23;101720.88;5034225;28;20409;-85
2022/09/22 11:55:17;;;;;;;0.47;0.40;;;;;;;18.17;42.96;101724.41;5057452;28;20041;-81
2022/09/22 11:57:47;;;;;;;0.60;0.60;;;;;;;18.04;43.23;101716.84;5032724;28;20046;-79
2022/09/22 12:00:17;;;;;;;1.40;0.60;;;;;;;18.20;44.38;101713.56;5027444;28;20178;-79
2022/09/22 12:03:01;;;;;;;0.30;0.30;;;;;;;18.14;41.38;101715.59;5032122;28;20072;-78
2022/09/22 12:05:53;;;;;;;0.30;0.30;;;;;;;18.21;42.92;101707.28;5033545;28;20046;-81
2022/09/22 12:08:22;;;;;;;0.55;0.55;;;;;;;18.17;41.61;101703.00;5034275;28;20041;-78
2022/09/22 12:10:50;;;;;;;1.38;1.02;;;;;;;18.20;42.35;101707.34;5033997;28;20075;-81
2022/09/22 12:13:20;;;;;;;0.75;0.40;;;;;;;18.26;41.56;101700.00;5052676;28;20051;-78
2022/09/22 12:16:19;;;;;;;0.80;0.50;;;;;;;18.42;41.35;101691.41;5052060;28;20776;-78
2022/09/22 12:18:46;;;;;;;0.40;0.40;;;;;;;18.30;41.62;101690.03;5072650;28;20488;-79
2022/09/22 12:21:33;;;;;;;1.23;0.43;;;;;;;18.27;40.09;101691.03;5019023;28;20049;-78
2022/09/22 12:24:02;;;;;;;0.95;0.50;;;;;;;18.29;41.16;101690.97;5042182;28;20127;-79
2022/09/22 12:26:32;;;;;;;1.33;0.50;;;;;;;18.35;41.04;101673.84;5050803;28;21055;-79
2022/09/22 12:29:00;;;;;;;0.40;0.40;;;;;;;18.48;43.75;101684.00;5018738;28;20394;-80
2022/09/22 12:31:35;;;;;;;0.30;0.30;;;;;;;18.69;42.79;101684.19;5015083;28;20050;-79
2022/09/22 12:34:03;;;;;;;10.23;7.25;;;;;;;18.75;42.16;101687.50;5049782;28;20084;-82
2022/09/22 12:36:36;;;;;;;5.25;3.35;;;;;;;18.89;42.21;101686.97;5044391;28;20498;-80
2022/09/22 12:39:17;;;;;;;1.50;1.40;;;;;;;18.72;42.30;101686.75;5039256;28;20029;-81
2022/09/22 12:41:51;;;;;;;0.73;0.73;;;;;;;18.50;41.37;101682.19;5033641;28;20685;-80
2022/09/22 12:44:20;;;;;;;0.65;0.65;;;;;;;18.23;40.62;101684.03;5041001;28;20053;-79
2022/09/22 12:46:48;;;;;;;0.82;0.82;;;;;;;18.67;42.21;101684.25;5047225;28;20064;-78
2022/09/22 12:49:21;;;;;;;0.40;0.40;;;;;;;18.86;40.88;101679.06;5033016;28;20041;-79
2022/09/22 12:51:48;;;;;;;0.98;0.98;;;;;;;18.35;37.70;101680.06;5034722;28;20047;-78
2022/09/22 12:54:21;;;;;;;0.75;0.50;;;;;;;18.71;37.25;101669.81;5028649;28;20070;-79
2022/09/22 12:57:03;;;;;;;0.50;0.50;;;;;;;18.77;39.48;101676.75;5074096;28;20051;-82
2022/09/22 12:59:36;;;;;;;1.23;0.40;;;;;;;18.69;39.80;101670.81;5052176;28;20128;-78
2022/09/22 13:02:14;;;;;;;0.45;0.43;;;;;;;18.66;38.21;101668.22;5038963;28;20045;-79
2022/09/22 13:04:56;;;;;;;0.30;0.30;;;;;;;18.52;38.76;101669.59;5051956;28;20090;-79
2022/09/22 13:07:34;;;;;;;0.60;0.60;;;;;;;18.42;41.20;101668.22;5047053;28;20096;-79
2022/09/22 13:10:26;;;;;;;1.30;0.50;;;;;;;18.55;38.85;101669.47;5048553;28;20040;-83
2022/09/22 13:13:02;;;;;;;0.40;0.40;;;;;;;18.65;40.55;101667.34;5051404;28;20044;-80
2022/09/22 13:15:48;;;;;;;1.10;0.40;;;;;;;18.65;39.70;101664.69;5017736;28;20095;-81
2022/09/22 13:18:36;;;;;;;1.65;0.50;;;;;;;18.74;40.85;101655.41;5018649;28;20114;-80
2022/09/22 13:21:18;;;;;;;0.38;0.38;;;;;;;18.63;37.96;101654.94;5031890;28;20034;-79
2022/09/22 13:23:51;;;;;;;0.38;0.38;;;;;;;18.40;38.14;101656.66;5031112;28;20048;-78